createdAt,value
2023-01-03T00:02:25.483Z,101676.72
2023-01-03T00:04:52.432Z,101678.94
2023-01-03T00:07:34.312Z,101673.97
2023-01-03T00:10:09.019Z,101667.38
2023-01-03T00:12:36.337Z,101669.31
2023-01-03T00:15:03.741Z,101667.38
2023-01-03T00:17:30.625Z,101674.53
2023-01-03T00:19:57.486Z,101664.09
2023-01-03T00:22:24.316Z,101666.28
2023-01-03T00:24:53.058Z,101660.78
2023-01-03T00:27:20.063Z,101656.88
2023-01-03T00:29:47.063Z,101656.63
2023-01-03T00:32:14.607Z,101655.78
2023-01-03T00:34:45.009Z,101659.91
2023-01-03T00:37:12.877Z,101655.25
2023-01-03T00:39:39.889Z,101649.78
2023-01-03T00:42:07.522Z,101649.47
2023-01-03T00:44:34.432Z,101643.69
2023-01-03T00:47:02.188Z,101651.34
2023-01-03T00:49:29.148Z,101645.03
2023-01-03T00:51:56.059Z,101648.59
2023-01-03T00:54:23.389Z,101634.06
2023-01-03T00:56:51.886Z,101629.91
2023-01-03T00:59:20.213Z,101627.78
2023-01-03T01:01:53.617Z,101619.25
2023-01-03T01:04:29.840Z,101628.78
2023-01-03T01:07:02.569Z,101624.69
2023-01-03T01:09:33.655Z,101610.16
2023-01-03T01:12:00.559Z,101613.22
2023-01-03T01:14:29.416Z,101608.25
2023-01-03T01:17:01.907Z,101611.00
2023-01-03T01:19:50.631Z,101616.22
2023-01-03T01:22:17.516Z,101607.72
2023-01-03T01:24:44.417Z,101606.59
2023-01-03T01:27:11.510Z,101598.63
2023-01-03T01:29:39.162Z,101599.97
2023-01-03T01:32:06.389Z,101605.22
2023-01-03T01:34:33.277Z,101585.19
2023-01-03T01:37:00.329Z,101596.63
2023-01-03T01:39:28.736Z,101589.44
2023-01-03T01:42:20.414Z,101591.00
2023-01-03T01:45:02.499Z,101583.53
2023-01-03T01:47:52.674Z,101595.06
2023-01-03T01:50:25.950Z,101590.41
2023-01-03T01:52:59.889Z,101590.41
2023-01-03T01:55:31.693Z,101590.06
2023-01-03T01:57:59.710Z,101582.13
2023-01-03T02:00:27.037Z,101583.19
2023-01-03T02:02:55.580Z,101575.13
2023-01-03T02:05:23.728Z,101575.22
2023-01-03T02:07:52.531Z,101578.16
2023-01-03T02:10:35.108Z,101569.94
2023-01-03T02:13:19.775Z,101574.06
2023-01-03T02:15:46.754Z,101562.69
2023-01-03T02:18:22.668Z,101574.69
2023-01-03T02:21:20.532Z,101567.88
2023-01-03T02:23:49.990Z,101572.44
2023-01-03T02:26:22.669Z,101571.84
2023-01-03T02:29:17.205Z,101566.88
2023-01-03T02:31:49.336Z,101561.13
2023-01-03T02:34:33.351Z,101567.72
2023-01-03T02:37:09.121Z,101561.94
2023-01-03T02:39:48.912Z,101559.44
2023-01-03T02:42:57.203Z,101571.75
2023-01-03T02:45:44.282Z,101554.22
2023-01-03T02:48:39.434Z,101558.63
2023-01-03T02:51:14.353Z,101567.84
2023-01-03T02:53:46.522Z,101560.41
2023-01-03T02:56:19.792Z,101559.34
2023-01-03T02:58:50.951Z,101560.22
2023-01-03T03:01:19.239Z,101556.97
2023-01-03T03:03:47.941Z,101555.28
2023-01-03T03:06:20.876Z,101553.97
2023-01-03T03:08:48.416Z,101559.22
2023-01-03T03:11:34.126Z,101552.66
2023-01-03T03:26:26.057Z,101559.19
2023-01-03T03:29:05.553Z,101553.66
2023-01-03T03:31:39.823Z,101550.78
2023-01-03T03:34:14.886Z,101552.31
2023-01-03T03:36:41.759Z,101552.19
2023-01-03T03:39:33.089Z,101556.50
2023-01-03T03:42:48.126Z,101555.53
2023-01-03T03:45:43.673Z,101561.00
2023-01-03T03:48:20.001Z,101548.53
2023-01-03T03:50:54.422Z,101544.09
2023-01-03T03:53:25.540Z,101546.88
2023-01-03T03:56:09.930Z,101556.16
2023-01-03T03:58:46.316Z,101557.25
2023-01-03T04:01:19.034Z,101548.03
2023-01-03T04:03:48.475Z,101549.09
2023-01-03T04:06:44.161Z,101554.03
2023-01-03T04:09:11.563Z,101557.91
2023-01-03T04:11:38.666Z,101558.19
2023-01-03T04:14:05.579Z,101553.28
2023-01-03T04:16:32.488Z,101556.06
2023-01-03T04:18:59.451Z,101562.88
2023-01-03T04:21:26.418Z,101555.69
2023-01-03T04:23:53.352Z,101559.84
2023-01-03T04:26:20.316Z,101558.19
2023-01-03T04:28:47.287Z,101551.94
2023-01-03T04:31:14.316Z,101552.50
2023-01-03T04:33:41.204Z,101553.09
2023-01-03T04:36:08.623Z,101548.84
2023-01-03T04:38:35.541Z,101554.25
2023-01-03T04:41:08.368Z,101554.50
2023-01-03T04:43:54.108Z,101549.78
2023-01-03T04:46:21.545Z,101552.69
2023-01-03T04:48:48.685Z,101560.41
2023-01-03T04:51:16.183Z,101558.47
2023-01-03T04:53:43.021Z,101554.34
2023-01-03T04:56:10.025Z,101557.84
2023-01-03T04:58:36.882Z,101548.88
2023-01-03T05:01:05.895Z,101564.91
2023-01-03T05:03:32.875Z,101556.63
2023-01-03T05:06:01.627Z,101558.44
2023-01-03T05:08:28.649Z,101559.19
2023-01-03T05:10:55.652Z,101563.91
2023-01-03T05:13:23.074Z,101553.03
2023-01-03T05:15:50.026Z,101555.88
2023-01-03T05:18:17.028Z,101554.56
2023-01-03T05:21:03.234Z,101554.75
2023-01-03T05:23:48.926Z,101564.84
2023-01-03T05:26:19.533Z,101557.47
2023-01-03T05:28:50.012Z,101555.50
2023-01-03T05:31:16.915Z,101559.06
2023-01-03T05:33:44.007Z,101559.34
2023-01-03T05:36:11.360Z,101564.78
2023-01-03T05:38:38.803Z,101568.41
2023-01-03T05:41:06.037Z,101563.22
2023-01-03T05:43:33.373Z,101562.69
2023-01-03T05:46:00.355Z,101563.69
2023-01-03T05:48:27.521Z,101557.81
2023-01-03T05:50:57.420Z,101569.50
2023-01-03T05:53:24.906Z,101572.13
2023-01-03T05:55:51.741Z,101563.91
2023-01-03T05:58:18.676Z,101567.69
2023-01-03T06:00:45.694Z,101575.75
2023-01-03T06:03:13.930Z,101569.00
2023-01-03T06:05:46.245Z,101566.72
2023-01-03T06:08:17.674Z,101571.22
2023-01-03T06:10:44.582Z,101575.16
2023-01-03T06:13:11.694Z,101566.63
2023-01-03T06:15:38.521Z,101573.75
2023-01-03T06:18:05.355Z,101572.97
2023-01-03T06:20:32.915Z,101574.06
2023-01-03T06:22:59.816Z,101572.97
2023-01-03T06:25:27.272Z,101578.75
2023-01-03T06:27:55.792Z,101576.03
2023-01-03T06:30:22.796Z,101575.84
2023-01-03T06:32:49.819Z,101570.44
2023-01-03T06:35:16.845Z,101574.41
2023-01-03T06:37:43.825Z,101569.66
2023-01-03T06:40:11.250Z,101568.34
2023-01-03T06:42:43.221Z,101575.50
2023-01-03T06:45:31.295Z,101582.94
2023-01-03T06:48:17.838Z,101582.81
2023-01-03T06:51:03.285Z,101581.47
2023-01-03T06:53:36.682Z,101576.75
2023-01-03T06:56:04.770Z,101576.66
2023-01-03T06:58:31.687Z,101572.69
2023-01-03T07:01:02.853Z,101580.56
2023-01-03T07:03:31.245Z,101590.13
2023-01-03T07:05:58.178Z,101582.56
2023-01-03T07:08:24.987Z,101588.69
2023-01-03T07:10:51.890Z,101591.91
2023-01-03T07:13:37.349Z,101598.06
2023-01-03T07:16:04.393Z,101586.94
2023-01-03T07:18:31.907Z,101577.25
2023-01-03T07:20:58.771Z,101590.03
2023-01-03T07:23:25.726Z,101584.34
2023-01-03T07:25:55.569Z,101583.78
2023-01-03T07:28:23.498Z,101586.69
2023-01-03T07:30:50.576Z,101582.25
2023-01-03T07:33:18.379Z,101584.59
2023-01-03T07:35:45.822Z,101582.16
2023-01-03T07:38:14.879Z,101595.53
2023-01-03T07:40:41.875Z,101595.94
2023-01-03T07:43:31.819Z,101593.09
2023-01-03T07:45:58.669Z,101594.34
2023-01-03T07:48:25.680Z,101590.63
2023-01-03T07:50:58.222Z,101592.63
2023-01-03T07:53:25.953Z,101598.56
2023-01-03T07:55:52.794Z,101585.75
2023-01-03T07:58:19.720Z,101591.47
2023-01-03T08:00:46.646Z,101587.84
2023-01-03T08:03:14.548Z,101585.69
2023-01-03T08:05:41.500Z,101578.88
2023-01-03T08:08:09.177Z,101585.47
2023-01-03T08:10:54.500Z,101592.84
2023-01-03T08:13:21.958Z,101590.06
2023-01-03T08:15:55.440Z,101595.41
2023-01-03T08:18:27.641Z,101592.56
2023-01-03T08:20:57.279Z,101596.75
2023-01-03T08:23:25.205Z,101586.00
2023-01-03T08:25:52.854Z,101594.91
2023-01-03T08:28:19.851Z,101587.06
2023-01-03T08:30:49.575Z,101577.63
2023-01-03T08:33:18.824Z,101578.41
2023-01-03T08:36:00.633Z,101581.53
2023-01-03T08:38:35.627Z,101581.22
2023-01-03T08:41:04.564Z,101575.66
2023-01-03T08:43:36.123Z,101576.25
2023-01-03T08:46:07.282Z,101576.16
2023-01-03T08:48:34.426Z,101576.88
2023-01-03T08:51:02.203Z,101572.53
2023-01-03T08:53:29.101Z,101569.84
2023-01-03T08:55:57.072Z,101570.44
2023-01-03T08:58:24.031Z,101561.41
2023-01-03T09:00:50.933Z,101554.97
2023-01-03T09:03:18.436Z,101558.53
2023-01-03T09:05:46.041Z,101561.53
2023-01-03T09:08:12.833Z,101548.00
2023-01-03T09:10:47.152Z,101550.91
2023-01-03T09:13:14.659Z,101543.81
2023-01-03T09:15:41.608Z,101541.94
2023-01-03T09:18:09.117Z,101536.53
2023-01-03T09:20:36.026Z,101541.78
2023-01-03T09:23:02.954Z,101540.81
2023-01-03T09:25:36.526Z,101529.34
2023-01-03T09:28:04.221Z,101523.94
2023-01-03T09:30:31.195Z,101520.00
2023-01-03T09:32:58.139Z,101517.78
2023-01-03T09:35:25.020Z,101509.88
2023-01-03T09:37:51.862Z,101510.50
2023-01-03T09:40:18.839Z,101506.47
2023-01-03T09:43:04.416Z,101501.31
2023-01-03T09:45:34.453Z,101500.94
2023-01-03T09:48:04.436Z,101504.16
2023-01-03T09:50:57.166Z,101501.16
2023-01-03T09:53:56.520Z,101485.16
2023-01-03T09:56:41.758Z,101485.13
2023-01-03T09:59:33.912Z,101478.47
2023-01-03T10:02:22.405Z,101469.38
2023-01-03T10:05:04.687Z,101473.44
2023-01-03T10:08:13.107Z,101475.19
2023-01-03T10:11:09.713Z,101463.72
2023-01-03T10:14:09.578Z,101470.16
2023-01-03T10:17:09.622Z,101451.09
2023-01-03T10:20:08.867Z,101457.06
2023-01-03T10:22:37.764Z,101442.50
2023-01-03T10:25:04.585Z,101443.88
2023-01-03T10:27:34.585Z,101440.13
2023-01-03T10:30:05.272Z,101433.91
2023-01-03T10:32:50.592Z,101435.91
2023-01-03T10:35:17.417Z,101429.47
2023-01-03T10:37:45.254Z,101427.59
2023-01-03T10:40:13.459Z,101428.28
2023-01-03T10:42:42.283Z,101429.03
2023-01-03T10:45:19.509Z,101411.16
2023-01-03T10:47:59.641Z,101422.78
2023-01-03T10:50:28.862Z,101410.84
2023-01-03T10:53:04.341Z,101414.47
2023-01-03T10:55:35.134Z,101410.00
2023-01-03T10:58:13.690Z,101408.72
2023-01-03T11:00:40.714Z,101406.56
2023-01-03T11:03:18.234Z,101397.97
2023-01-03T11:05:48.091Z,101399.22
2023-01-03T11:08:43.403Z,101393.88
2023-01-03T11:11:34.996Z,101382.50
2023-01-03T11:14:24.511Z,101384.72
2023-01-03T11:16:58.614Z,101387.84
2023-01-03T11:19:31.475Z,101383.56
2023-01-03T11:22:14.706Z,101378.75
2023-01-03T11:25:08.128Z,101375.44
2023-01-03T11:28:01.023Z,101371.66
2023-01-03T11:30:45.953Z,101367.75
2023-01-03T11:33:36.373Z,101366.41
2023-01-03T11:36:32.459Z,101356.63
2023-01-03T11:39:20.104Z,101367.59
2023-01-03T11:42:14.417Z,101364.19
2023-01-03T11:45:05.500Z,101371.50
2023-01-03T11:48:09.840Z,101368.38
2023-01-03T11:50:55.124Z,101363.59
2023-01-03T11:53:40.370Z,101364.00
2023-01-03T11:56:19.000Z,101364.03
2023-01-03T11:58:48.726Z,101356.56
2023-01-03T12:01:42.809Z,101351.50
2023-01-03T12:04:27.493Z,101349.50
2023-01-03T12:07:45.870Z,101356.66
2023-01-03T12:10:15.780Z,101358.69
2023-01-03T12:12:52.737Z,101371.59
2023-01-03T12:15:25.849Z,101360.00
2023-01-03T12:17:58.715Z,101356.44
2023-01-03T12:20:44.025Z,101353.84
2023-01-03T12:23:37.571Z,101356.03
2023-01-03T12:26:08.846Z,101355.91
2023-01-03T12:28:40.920Z,101354.22
2023-01-03T12:31:17.031Z,101356.31
2023-01-03T12:34:17.877Z,101356.53
2023-01-03T12:37:15.846Z,101352.19
2023-01-03T12:39:57.565Z,101352.19
2023-01-03T12:42:32.171Z,101361.25
2023-01-03T12:45:08.202Z,101359.72
2023-01-03T12:47:43.140Z,101362.22
2023-01-03T12:50:40.575Z,101360.88
2023-01-03T12:53:27.159Z,101367.13
2023-01-03T12:56:36.725Z,101370.09
2023-01-03T12:59:17.529Z,101365.78
2023-01-03T13:01:53.584Z,101357.59
2023-01-03T13:04:29.142Z,101364.50
2023-01-03T13:07:02.228Z,101358.66
2023-01-03T13:09:37.080Z,101369.06
2023-01-03T13:12:21.608Z,101355.63
2023-01-03T13:14:57.419Z,101357.53
2023-01-03T13:17:28.466Z,101351.78
2023-01-03T13:20:14.497Z,101356.00
2023-01-03T13:22:58.583Z,101358.25
2023-01-03T13:25:41.587Z,101364.25
2023-01-03T13:28:31.210Z,101364.13
2023-01-03T13:31:14.487Z,101364.09
2023-01-03T13:33:55.473Z,101365.69
2023-01-03T13:36:24.491Z,101362.22
2023-01-03T13:38:54.134Z,101365.06
2023-01-03T13:41:39.059Z,101364.06
2023-01-03T13:44:19.896Z,101367.00
2023-01-03T13:46:48.229Z,101365.31
2023-01-03T13:49:21.283Z,101362.47
2023-01-03T13:51:56.952Z,101362.31
2023-01-03T13:54:56.351Z,101349.63
2023-01-03T13:57:35.477Z,101361.72
2023-01-03T14:00:10.191Z,101358.09
2023-01-03T14:03:14.695Z,101359.97
2023-01-03T14:06:19.110Z,101355.66
2023-01-03T14:09:10.886Z,101371.16
2023-01-03T14:11:43.750Z,101360.16
2023-01-03T14:14:14.855Z,101363.41
2023-01-03T14:16:51.086Z,101357.50
2023-01-03T14:19:32.529Z,101367.91
2023-01-03T14:22:28.018Z,101369.41
2023-01-03T14:24:57.665Z,101368.38
2023-01-03T14:27:32.806Z,101371.16
2023-01-03T14:30:00.754Z,101366.00
2023-01-03T14:32:36.038Z,101365.09
2023-01-03T14:35:04.432Z,101367.25
2023-01-03T14:37:33.275Z,101369.28
2023-01-03T14:40:03.217Z,101358.78
2023-01-03T14:42:30.106Z,101369.59
2023-01-03T14:45:04.006Z,101366.34
2023-01-03T14:47:41.505Z,101359.25
2023-01-03T14:50:15.519Z,101362.84
2023-01-03T14:52:45.864Z,101368.19
2023-01-03T14:55:18.742Z,101370.97
2023-01-03T14:57:48.310Z,101368.78
2023-01-03T15:00:17.886Z,101368.59
2023-01-03T15:02:46.395Z,101379.25
2023-01-03T15:05:35.658Z,101369.94
2023-01-03T15:08:15.146Z,101369.94
2023-01-03T15:10:47.917Z,101378.59
2023-01-03T15:13:20.446Z,101373.19
2023-01-03T15:28:56.481Z,101372.59
2023-01-03T15:31:37.243Z,101378.03
2023-01-03T15:34:16.582Z,101377.44
2023-01-03T15:37:19.669Z,101382.16
2023-01-03T15:39:49.582Z,101383.34
2023-01-03T15:42:56.447Z,101384.28
2023-01-03T15:45:28.567Z,101382.47
2023-01-03T15:47:59.672Z,101383.09
2023-01-03T15:50:40.296Z,101383.84
2023-01-03T15:53:30.017Z,101393.06
2023-01-03T15:56:13.004Z,101384.97
2023-01-03T15:58:40.464Z,101393.56
2023-01-03T16:01:08.835Z,101391.53
2023-01-03T16:03:36.601Z,101390.81
2023-01-03T16:06:04.042Z,101384.69
2023-01-03T16:08:38.835Z,101399.50
2023-01-03T16:11:11.902Z,101404.75
2023-01-03T16:13:45.667Z,101405.03
2023-01-03T16:16:16.608Z,101411.91
2023-01-03T16:18:45.475Z,101408.84
2023-01-03T16:21:13.713Z,101421.72
2023-01-03T16:23:41.037Z,101419.25
2023-01-03T16:26:08.503Z,101414.34
2023-01-03T16:28:35.609Z,101418.56
2023-01-03T16:31:44.666Z,101421.97
2023-01-03T16:34:20.080Z,101423.06
2023-01-03T16:36:48.128Z,101433.81
2023-01-03T16:39:20.941Z,101431.63
2023-01-03T16:42:07.554Z,101422.66
2023-01-03T16:44:36.977Z,101437.66
2023-01-03T16:47:26.380Z,101441.78
2023-01-03T16:49:57.698Z,101441.78
2023-01-03T16:52:27.594Z,101444.22
2023-01-03T16:54:55.108Z,101444.22
2023-01-03T16:57:22.563Z,101441.66
2023-01-03T16:59:49.930Z,101438.50
2023-01-03T17:02:17.251Z,101447.00
2023-01-03T17:04:44.818Z,101439.72
2023-01-03T17:07:23.928Z,101443.22
2023-01-03T17:09:51.844Z,101450.28
2023-01-03T17:12:22.392Z,101445.88
2023-01-03T17:14:50.292Z,101446.25
2023-01-03T17:17:20.853Z,101451.75
2023-01-03T17:20:05.612Z,101447.09
2023-01-03T17:22:33.362Z,101441.97
2023-01-03T17:25:00.322Z,101445.72
2023-01-03T17:27:32.551Z,101441.63
2023-01-03T17:30:03.613Z,101449.50
2023-01-03T17:32:30.734Z,101448.06
2023-01-03T17:34:57.866Z,101448.25
2023-01-03T17:37:25.794Z,101448.56
2023-01-03T17:39:59.614Z,101451.44
2023-01-03T17:42:27.060Z,101464.00
2023-01-03T17:45:12.229Z,101460.28
2023-01-03T17:48:00.606Z,101461.03
2023-01-03T17:50:32.287Z,101452.25
2023-01-03T17:53:01.979Z,101467.59
2023-01-03T17:55:30.727Z,101470.53
2023-01-03T17:58:01.747Z,101474.94
2023-01-03T18:00:30.832Z,101484.38
2023-01-03T18:03:00.539Z,101480.59
2023-01-03T18:05:29.041Z,101481.16
2023-01-03T18:08:01.427Z,101481.88
2023-01-03T18:10:46.203Z,101480.41
2023-01-03T18:13:24.201Z,101478.69
2023-01-03T18:15:51.814Z,101478.63
2023-01-03T18:18:20.400Z,101478.28
2023-01-03T18:20:47.989Z,101479.53
2023-01-03T18:23:25.217Z,101482.72
2023-01-03T18:25:53.241Z,101488.47
2023-01-03T18:28:28.448Z,101490.03
2023-01-03T18:30:56.262Z,101483.47
2023-01-03T18:33:24.138Z,101488.78
2023-01-03T18:35:52.626Z,101490.41
2023-01-03T18:38:32.349Z,101487.34
2023-01-03T18:41:04.773Z,101489.94
2023-01-03T18:43:32.590Z,101482.28
2023-01-03T18:45:59.617Z,101492.09
2023-01-03T18:48:26.455Z,101496.22
2023-01-03T18:50:58.803Z,101489.56
2023-01-03T18:53:29.433Z,101491.84
2023-01-03T18:55:56.488Z,101490.00
2023-01-03T18:58:31.712Z,101499.00
2023-01-03T19:00:58.809Z,101490.22
2023-01-03T19:03:28.203Z,101493.28
2023-01-03T19:05:55.555Z,101493.28
2023-01-03T19:08:25.775Z,101496.31
2023-01-03T19:10:53.117Z,101494.09
2023-01-03T19:13:50.395Z,101500.75
2023-01-03T19:16:26.559Z,101508.41
2023-01-03T19:18:54.590Z,101501.34
2023-01-03T19:21:23.411Z,101505.22
2023-01-03T19:23:59.950Z,101509.84
2023-01-03T19:26:34.698Z,101508.59
2023-01-03T19:29:04.962Z,101509.34
2023-01-03T19:31:43.975Z,101502.19
2023-01-03T19:34:16.014Z,101495.06
2023-01-03T19:36:43.180Z,101513.00
2023-01-03T19:39:11.708Z,101498.16
2023-01-03T19:42:04.129Z,101503.06
2023-01-03T19:44:31.956Z,101508.25
2023-01-03T19:46:59.482Z,101510.94
2023-01-03T19:49:26.726Z,101516.13
2023-01-03T19:51:53.768Z,101521.00
2023-01-03T19:54:20.680Z,101517.63
2023-01-03T19:56:58.661Z,101520.25
2023-01-03T19:59:35.265Z,101522.72
2023-01-03T20:02:24.806Z,101527.69
2023-01-03T20:04:52.443Z,101525.94
2023-01-03T20:07:19.504Z,101534.47
2023-01-03T20:09:46.353Z,101527.81
2023-01-03T20:12:15.521Z,101532.22
2023-01-03T20:14:47.497Z,101529.88
2023-01-03T20:17:26.135Z,101537.03
2023-01-03T20:19:53.486Z,101528.25
2023-01-03T20:23:02.368Z,101536.03
2023-01-03T20:25:23.417Z,101524.00
2023-01-03T20:27:51.155Z,101533.03
2023-01-03T20:30:19.925Z,101531.13
2023-01-03T20:32:46.874Z,101526.19
2023-01-03T20:36:06.961Z,101532.28
2023-01-03T20:38:05.446Z,101533.94
2023-01-03T20:40:32.350Z,101530.84
2023-01-03T20:43:02.302Z,101534.16
2023-01-03T20:45:30.053Z,101534.97
2023-01-03T20:47:56.834Z,101525.31
2023-01-03T20:50:26.898Z,101542.75
2023-01-03T20:52:55.202Z,101547.06
2023-01-03T20:55:24.050Z,101541.97
2023-01-03T20:57:51.841Z,101540.13
2023-01-03T21:00:32.055Z,101541.84
2023-01-03T21:02:59.201Z,101542.47
2023-01-03T21:05:26.913Z,101536.69
2023-01-03T21:08:12.628Z,101544.13
2023-01-03T21:10:42.466Z,101542.19
2023-01-03T21:13:10.234Z,101543.72
2023-01-03T21:15:38.036Z,101561.50
2023-01-03T21:18:06.379Z,101550.25
2023-01-03T21:20:33.939Z,101547.72
2023-01-03T21:23:00.936Z,101554.56
2023-01-03T21:25:35.487Z,101549.88
2023-01-03T21:28:03.419Z,101548.78
2023-01-03T21:30:32.171Z,101548.19
2023-01-03T21:33:01.876Z,101543.38
2023-01-03T21:35:28.727Z,101551.94
2023-01-03T21:37:55.683Z,101557.50
2023-01-03T21:40:28.393Z,101557.75
2023-01-03T21:43:04.007Z,101552.53
2023-01-03T21:45:40.115Z,101551.72
2023-01-03T21:48:10.760Z,101552.63
2023-01-03T21:50:39.988Z,101551.53
2023-01-03T21:53:07.217Z,101550.94
2023-01-03T21:55:34.176Z,101562.84
2023-01-03T21:58:01.387Z,101565.06
2023-01-03T22:00:28.284Z,101559.34
2023-01-03T22:03:13.573Z,101560.72
2023-01-03T22:05:40.557Z,101559.34
2023-01-03T22:08:07.389Z,101563.16
2023-01-03T22:10:34.801Z,101551.81
2023-01-03T22:13:04.522Z,101557.91
2023-01-03T22:15:31.418Z,101554.38
2023-01-03T22:17:58.237Z,101554.38
2023-01-03T22:20:26.162Z,101549.41
2023-01-03T22:22:53.804Z,101552.13
2023-01-03T22:25:23.732Z,101549.38
2023-01-03T22:27:53.594Z,101549.19
2023-01-03T22:30:20.865Z,101547.44
2023-01-03T22:32:48.142Z,101552.34
2023-01-03T22:35:17.852Z,101561.69
2023-01-03T22:37:45.119Z,101559.22
2023-01-03T22:40:15.137Z,101561.91
2023-01-03T22:42:42.163Z,101559.34
2023-01-03T22:45:10.356Z,101564.56
2023-01-03T22:47:37.988Z,101563.19
2023-01-03T22:50:06.519Z,101573.53
2023-01-03T22:52:34.125Z,101572.72
2023-01-03T22:55:01.350Z,101570.88
2023-01-03T22:57:28.276Z,101569.34
2023-01-03T22:59:55.098Z,101556.00
2023-01-03T23:02:28.099Z,101561.44
2023-01-03T23:04:55.997Z,101563.13
2023-01-03T23:07:22.818Z,101556.97
2023-01-03T23:09:49.579Z,101566.34
2023-01-03T23:12:34.834Z,101561.59
2023-01-03T23:15:02.167Z,101562.47
2023-01-03T23:17:47.704Z,101559.44
2023-01-03T23:20:14.641Z,101560.88
2023-01-03T23:22:43.822Z,101552.94
2023-01-03T23:25:10.734Z,101560.38
2023-01-03T23:27:37.660Z,101552.97
2023-01-03T23:30:05.164Z,101564.53
2023-01-03T23:32:32.852Z,101561.75
2023-01-03T23:34:59.796Z,101572.50
2023-01-03T23:37:27.227Z,101574.38
2023-01-03T23:39:54.105Z,101582.66
2023-01-03T23:42:20.933Z,101578.03
2023-01-03T23:44:47.696Z,101590.38
2023-01-03T23:47:14.566Z,101586.03
2023-01-03T23:49:41.548Z,101592.88
2023-01-03T23:52:08.685Z,101593.47
2023-01-03T23:54:35.541Z,101586.91
2023-01-03T23:57:02.403Z,101589.34
2023-01-03T23:59:29.223Z,101593.19
